sensor_id;sensor_type;location;lat;lon;timestamp;P1;durP1;ratioP1;P2;durP2;ratioP2
58466;SDS011;44255;49.244;7.726;2022-09-27T03:30:51;6.65;;;2.00;;
58466;SDS011;44255;49.244;7.726;2022-09-27T03:33:16;6.13;;;2.30;;
58466;SDS011;44255;49.244;7.726;2022-09-27T03:35:42;3.67;;;2.00;;
58466;SDS011;44255;49.244;7.726;2022-09-27T03:38:08;5.13;;;2.10;;
58466;SDS011;44255;49.244;7.726;2022-09-27T03:40:34;6.13;;;2.28;;
58466;SDS011;44255;49.244;7.726;2022-09-27T03:43:00;5.35;;;2.30;;
58466;SDS011;44255;49.244;7.726;2022-09-27T03:45:25;4.90;;;2.10;;
58466;SDS011;44255;49.244;7.726;2022-09-27T03:47:51;6.30;;;2.10;;
58466;SDS011;44255;49.244;7.726;2022-09-27T03:50:16;6.80;;;1.97;;
58466;SDS011;44255;49.244;7.726;2022-09-27T03:52:42;7.83;;;2.37;;
58466;SDS011;44255;49.244;7.726;2022-09-27T03:55:08;3.60;;;2.00;;
58466;SDS011;44255;49.244;7.726;2022-09-27T03:59:59;7.32;;;2.55;;
58466;SDS011;44255;49.244;7.726;2022-09-27T04:02:25;6.65;;;3.17;;
58466;SDS011;44255;49.244;7.726;2022-09-27T04:07:16;4.63;;;2.10;;
58466;SDS011;44255;49.244;7.726;2022-09-27T04:09:42;4.93;;;2.20;;
58466;SDS011;44255;49.244;7.726;2022-09-27T04:12:08;3.70;;;2.20;;
58466;SDS011;44255;49.244;7.726;2022-09-27T04:14:34;8.95;;;2.45;;
58466;SDS011;44255;49.244;7.726;2022-09-27T04:16:59;8.03;;;2.43;;
58466;SDS011;44255;49.244;7.726;2022-09-27T04:19:24;8.47;;;2.57;;
58466;SDS011;44255;49.244;7.726;2022-09-27T04:21:49;6.63;;;2.30;;
58466;SDS011;44255;49.244;7.726;2022-09-27T04:24:15;5.40;;;2.30;;
58466;SDS011;44255;49.244;7.726;2022-09-27T04:26:40;5.17;;;2.30;;
58466;SDS011;44255;49.244;7.726;2022-09-27T04:29:05;5.95;;;2.45;;
58466;SDS011;44255;49.244;7.726;2022-09-27T04:31:33;7.60;;;2.50;;
58466;SDS011;44255;49.244;7.726;2022-09-27T04:34:00;10.73;;;2.60;;
58466;SDS011;44255;49.244;7.726;2022-09-27T04:36:25;5.00;;;2.23;;
58466;SDS011;44255;49.244;7.726;2022-09-27T04:38:55;6.50;;;2.20;;
58466;SDS011;44255;49.244;7.726;2022-09-27T04:41:22;6.43;;;2.13;;
58466;SDS011;44255;49.244;7.726;2022-09-27T04:43:49;5.30;;;2.33;;
58466;SDS011;44255;49.244;7.726;2022-09-27T04:46:15;2.70;;;2.22;;
58466;SDS011;44255;49.244;7.726;2022-09-27T04:48:41;7.43;;;2.45;;
58466;SDS011;44255;49.244;7.726;2022-09-27T04:51:06;6.53;;;2.23;;
58466;SDS011;44255;49.244;7.726;2022-09-27T04:53:33;4.40;;;2.35;;
58466;SDS011;44255;49.244;7.726;2022-09-27T04:55:58;6.57;;;2.70;;
58466;SDS011;44255;49.244;7.726;2022-09-27T04:58:26;5.47;;;2.30;;
58466;SDS011;44255;49.244;7.726;2022-09-27T05:00:51;3.17;;;2.23;;
58466;SDS011;44255;49.244;7.726;2022-09-27T05:03:19;7.40;;;2.47;;
58466;SDS011;44255;49.244;7.726;2022-09-27T05:08:11;3.10;;;2.22;;
58466;SDS011;44255;49.244;7.726;2022-09-27T05:10:36;3.97;;;2.20;;
58466;SDS011;44255;49.244;7.726;2022-09-27T05:13:01;6.07;;;2.50;;
58466;SDS011;44255;49.244;7.726;2022-09-27T05:15:27;4.22;;;2.30;;
58466;SDS011;44255;49.244;7.726;2022-09-27T05:17:52;5.60;;;2.10;;
58466;SDS011;44255;49.244;7.726;2022-09-27T05:20:18;5.78;;;2.25;;
58466;SDS011;44255;49.244;7.726;2022-09-27T05:22:44;6.80;;;2.20;;
58466;SDS011;44255;49.244;7.726;2022-09-27T05:25:10;4.53;;;2.20;;
58466;SDS011;44255;49.244;7.726;2022-09-27T05:27:36;6.72;;;2.40;;
58466;SDS011;44255;49.244;7.726;2022-09-27T05:30:02;6.15;;;2.72;;
58466;SDS011;44255;49.244;7.726;2022-09-27T05:32:28;4.32;;;1.95;;
58466;SDS011;44255;49.244;7.726;2022-09-27T05:34:53;3.70;;;2.00;;
58466;SDS011;44255;49.244;7.726;2022-09-27T05:37:19;5.78;;;2.08;;
58466;SDS011;44255;49.244;7.726;2022-09-27T05:39:44;3.20;;;1.85;;
58466;SDS011;44255;49.244;7.726;2022-09-27T05:42:10;2.60;;;1.63;;
58466;SDS011;44255;49.244;7.726;2022-09-27T05:44:36;4.93;;;2.15;;
58466;SDS011;44255;49.244;7.726;2022-09-27T05:47:02;4.97;;;1.67;;
58466;SDS011;44255;49.244;7.726;2022-09-27T05:49:31;2.60;;;1.70;;
58466;SDS011;44255;49.244;7.726;2022-09-27T05:51:57;3.67;;;1.90;;
58466;SDS011;44255;49.244;7.726;2022-09-27T05:54:22;2.97;;;1.73;;
58466;SDS011;44255;49.244;7.726;2022-09-27T05:56:47;5.75;;;1.92;;
58466;SDS011;44255;49.244;7.726;2022-09-27T05:59:13;5.43;;;1.50;;
58466;SDS011;44255;49.244;7.726;2022-09-27T06:01:38;7.10;;;2.00;;
58466;SDS011;44255;49.244;7.726;2022-09-27T06:04:03;3.43;;;1.97;;
58466;SDS011;44255;49.244;7.726;2022-09-27T06:06:29;4.18;;;1.73;;
58466;SDS011;44255;49.244;7.726;2022-09-27T06:11:21;5.03;;;1.70;;
58466;SDS011;44255;49.244;7.726;2022-09-27T06:13:47;2.95;;;1.38;;
58466;SDS011;44255;49.244;7.726;2022-09-27T06:16:12;3.17;;;1.33;;
58466;SDS011;44255;49.244;7.726;2022-09-27T06:18:38;5.68;;;1.75;;
58466;SDS011;44255;49.244;7.726;2022-09-27T06:21:04;3.33;;;1.55;;
58466;SDS011;44255;49.244;7.726;2022-09-27T06:23:30;3.03;;;1.58;;
58466;SDS011;44255;49.244;7.726;2022-09-27T06:28:24;4.13;;;1.63;;
58466;SDS011;44255;49.244;7.726;2022-09-27T06:30:50;2.95;;;1.75;;
58466;SDS011;44255;49.244;7.726;2022-09-27T06:33:17;3.83;;;1.70;;
58466;SDS011;44255;49.244;7.726;2022-09-27T06:35:43;5.18;;;1.95;;
58466;SDS011;44255;49.244;7.726;2022-09-27T06:38:11;5.10;;;1.80;;
58466;SDS011;44255;49.244;7.726;2022-09-27T06:40:37;6.47;;;1.75;;
58466;SDS011;44255;49.244;7.726;2022-09-27T06:43:04;3.45;;;1.88;;
58466;SDS011;44255;49.244;7.726;2022-09-27T06:45:32;3.33;;;1.90;;
58466;SDS011;44255;49.244;7.726;2022-09-27T06:47:58;3.55;;;1.83;;
58466;SDS011;44255;49.244;7.726;2022-09-27T06:50:27;4.80;;;2.15;;
58466;SDS011;44255;49.244;7.726;2022-09-27T06:52:53;3.03;;;1.80;;
58466;SDS011;44255;49.244;7.726;2022-09-27T06:55:19;5.13;;;2.40;;
58466;SDS011;44255;49.244;7.726;2022-09-27T06:57:44;3.40;;;2.13;;
58466;SDS011;44255;49.244;7.726;2022-09-27T07:00:28;4.10;;;2.08;;
58466;SDS011;44255;49.244;7.726;2022-09-27T07:02:56;4.30;;;2.05;;
58466;SDS011;44255;49.244;7.726;2022-09-27T07:05:25;7.00;;;2.55;;
58466;SDS011;44255;49.244;7.726;2022-09-27T07:07:54;3.75;;;2.30;;
58466;SDS011;44255;49.244;7.726;2022-09-27T07:10:21;2.92;;;1.95;;
58466;SDS011;44255;49.244;7.726;2022-09-27T07:12:51;5.15;;;2.15;;
58466;SDS011;44255;49.244;7.726;2022-09-27T07:15:17;8.27;;;2.10;;
58466;SDS011;44255;49.244;7.726;2022-09-27T07:17:47;7.82;;;2.05;;
58466;SDS011;44255;49.244;7.726;2022-09-27T07:20:20;4.72;;;2.38;;
58466;SDS011;44255;49.244;7.726;2022-09-27T07:22:45;10.60;;;2.20;;
58466;SDS011;44255;49.244;7.726;2022-09-27T07:25:10;5.32;;;2.30;;
58466;SDS011;44255;49.244;7.726;2022-09-27T07:27:37;5.43;;;2.85;;
58466;SDS011;44255;49.244;7.726;2022-09-27T07:30:05;4.75;;;2.80;;
58466;SDS011;44255;49.244;7.726;2022-09-27T07:32:31;5.45;;;3.78;;
58466;SDS011;44255;49.244;7.726;2022-09-27T07:34:56;7.47;;;4.35;;
58466;SDS011;44255;49.244;7.726;2022-09-27T07:37:22;6.50;;;3.60;;
58466;SDS011;44255;49.244;7.726;2022-09-27T07:39:47;7.10;;;4.30;;
58466;SDS011;44255;49.244;7.726;2022-09-27T07:42:13;6.10;;;3.80;;
58466;SDS011;44255;49.244;7.726;2022-09-27T07:44:38;7.88;;;4.45;;
58466;SDS011;44255;49.244;7.726;2022-09-27T07:47:06;10.00;;;4.33;;
58466;SDS011;44255;49.244;7.726;2022-09-27T07:49:32;6.88;;;3.40;;
58466;SDS011;44255;49.244;7.726;2022-09-27T07:51:57;7.03;;;3.50;;
58466;SDS011;44255;49.244;7.726;2022-09-27T07:54:23;6.87;;;3.67;;
58466;SDS011;44255;49.244;7.726;2022-09-27T07:56:48;5.43;;;3.60;;
58466;SDS011;44255;49.244;7.726;2022-09-27T07:59:13;6.47;;;3.73;;
58466;SDS011;44255;49.244;7.726;2022-09-27T08:01:39;6.93;;;3.50;;
58466;SDS011;44255;49.244;7.726;2022-09-27T08:04:04;7.47;;;3.83;;
58466;SDS011;44255;49.244;7.726;2022-09-27T08:06:29;16.83;;;4.57;;
58466;SDS011;44255;49.244;7.726;2022-09-27T08:08:55;9.65;;;4.25;;
58466;SDS011;44255;49.244;7.726;2022-09-27T08:11:22;10.35;;;4.13;;
58466;SDS011;44255;49.244;7.726;2022-09-27T08:13:47;8.73;;;3.67;;
58466;SDS011;44255;49.244;7.726;2022-09-27T08:16:16;8.63;;;4.97;;
58466;SDS011;44255;49.244;7.726;2022-09-27T08:18:41;6.43;;;4.00;;
58466;SDS011;44255;49.244;7.726;2022-09-27T08:21:07;12.70;;;4.50;;
58466;SDS011;44255;49.244;7.726;2022-09-27T08:23:32;9.23;;;3.63;;
58466;SDS011;44255;49.244;7.726;2022-09-27T08:25:57;7.55;;;3.70;;
58466;SDS011;44255;49.244;7.726;2022-09-27T08:28:24;8.57;;;3.65;;
58466;SDS011;44255;49.244;7.726;2022-09-27T08:30:51;10.23;;;3.85;;
58466;SDS011;44255;49.244;7.726;2022-09-27T08:33:16;8.13;;;4.70;;
58466;SDS011;44255;49.244;7.726;2022-09-27T08:35:42;11.23;;;4.40;;
58466;SDS011;44255;49.244;7.726;2022-09-27T08:38:08;5.67;;;2.80;;
58466;SDS011;44255;49.244;7.726;2022-09-27T08:45:54;4.10;;;1.73;;
58466;SDS011;44255;49.244;7.726;2022-09-27T08:48:22;4.53;;;1.80;;
58466;SDS011;44255;49.244;7.726;2022-09-27T08:50:51;7.43;;;1.60;;
58466;SDS011;44255;49.244;7.726;2022-09-27T08:56:15;2.80;;;1.30;;
58466;SDS011;44255;49.244;7.726;2022-09-27T08:58:54;3.85;;;1.73;;
58466;SDS011;44255;49.244;7.726;2022-09-27T09:01:25;3.35;;;1.58;;
58466;SDS011;44255;49.244;7.726;2022-09-27T09:03:55;5.13;;;2.00;;
58466;SDS011;44255;49.244;7.726;2022-09-27T09:06:27;2.58;;;1.60;;
58466;SDS011;44255;49.244;7.726;2022-09-27T09:20:11;4.68;;;1.85;;
58466;SDS011;44255;49.244;7.726;2022-09-27T09:26:17;5.27;;;2.20;;
58466;SDS011;44255;49.244;7.726;2022-09-27T09:29:09;4.15;;;2.30;;
58466;SDS011;44255;49.244;7.726;2022-09-27T09:37:18;5.13;;;2.17;;
58466;SDS011;44255;49.244;7.726;2022-09-27T09:39:52;3.80;;;1.90;;
58466;SDS011;44255;49.244;7.726;2022-09-27T09:42:25;3.47;;;1.98;;
58466;SDS011;44255;49.244;7.726;2022-09-27T09:44:58;6.28;;;2.10;;
58466;SDS011;44255;49.244;7.726;2022-09-27T09:50:03;8.25;;;2.92;;
58466;SDS011;44255;49.244;7.726;2022-09-27T09:52:41;11.32;;;3.13;;
58466;SDS011;44255;49.244;7.726;2022-09-27T09:55:19;6.47;;;2.72;;
58466;SDS011;44255;49.244;7.726;2022-09-27T10:00:34;4.43;;;1.98;;
58466;SDS011;44255;49.244;7.726;2022-09-27T10:02:59;5.07;;;1.80;;
58466;SDS011;44255;49.244;7.726;2022-09-27T10:05:25;10.23;;;2.78;;
58466;SDS011;44255;49.244;7.726;2022-09-27T10:07:53;5.20;;;1.85;;
58466;SDS011;44255;49.244;7.726;2022-09-27T10:10:22;11.00;;;2.72;;
58466;SDS011;44255;49.244;7.726;2022-09-27T10:12:48;4.75;;;2.30;;
58466;SDS011;44255;49.244;7.726;2022-09-27T10:15:25;2.05;;;1.20;;
58466;SDS011;44255;49.244;7.726;2022-09-27T10:17:53;4.28;;;1.40;;
58466;SDS011;44255;49.244;7.726;2022-09-27T10:20:27;7.40;;;1.58;;
58466;SDS011;44255;49.244;7.726;2022-09-27T10:23:02;5.15;;;1.20;;
58466;SDS011;44255;49.244;7.726;2022-09-27T10:25:44;2.58;;;1.10;;
58466;SDS011;44255;49.244;7.726;2022-09-27T10:28:24;5.70;;;1.30;;
58466;SDS011;44255;49.244;7.726;2022-09-27T10:30:54;3.25;;;1.55;;
58466;SDS011;44255;49.244;7.726;2022-09-27T10:33:21;3.42;;;1.30;;
58466;SDS011;44255;49.244;7.726;2022-09-27T10:35:47;2.33;;;1.08;;
58466;SDS011;44255;49.244;7.726;2022-09-27T10:38:23;3.20;;;1.15;;
58466;SDS011;44255;49.244;7.726;2022-09-27T10:40:53;2.95;;;1.25;;
58466;SDS011;44255;49.244;7.726;2022-09-27T10:43:24;3.53;;;1.30;;
58466;SDS011;44255;49.244;7.726;2022-09-27T10:46:04;3.85;;;1.30;;
58466;SDS011;44255;49.244;7.726;2022-09-27T10:48:33;2.53;;;1.00;;
58466;SDS011;44255;49.244;7.726;2022-09-27T10:51:01;3.35;;;1.00;;
58466;SDS011;44255;49.244;7.726;2022-09-27T10:53:28;3.75;;;1.13;;
58466;SDS011;44255;49.244;7.726;2022-09-27T10:55:56;2.00;;;1.10;;
58466;SDS011;44255;49.244;7.726;2022-09-27T10:58:26;2.25;;;1.20;;
58466;SDS011;44255;49.244;7.726;2022-09-27T11:00:56;2.92;;;1.48;;
58466;SDS011;44255;49.244;7.726;2022-09-27T11:03:25;2.13;;;1.13;;
58466;SDS011;44255;49.244;7.726;2022-09-27T11:05:53;5.40;;;1.52;;
58466;SDS011;44255;49.244;7.726;2022-09-27T11:13:28;2.10;;;1.02;;
58466;SDS011;44255;49.244;7.726;2022-09-27T11:24:24;2.15;;;1.10;;
58466;SDS011;44255;49.244;7.726;2022-09-27T11:30:15;5.40;;;1.45;;
58466;SDS011;44255;49.244;7.726;2022-09-27T11:46:29;3.25;;;1.10;;
58466;SDS011;44255;49.244;7.726;2022-09-27T11:54:02;5.20;;;1.30;;
58466;SDS011;44255;49.244;7.726;2022-09-27T12:04:42;1.98;;;1.00;;
58466;SDS011;44255;49.244;7.726;2022-09-27T12:07:19;3.53;;;1.30;;
58466;SDS011;44255;49.244;7.726;2022-09-27T12:09:52;4.07;;;1.77;;
58466;SDS011;44255;49.244;7.726;2022-09-27T12:12:22;5.00;;;1.98;;
58466;SDS011;44255;49.244;7.726;2022-09-27T12:14:54;4.75;;;1.20;;
58466;SDS011;44255;49.244;7.726;2022-09-27T12:17:26;6.07;;;1.52;;
58466;SDS011;44255;49.244;7.726;2022-09-27T12:19:56;3.13;;;1.02;;
58466;SDS011;44255;49.244;7.726;2022-09-27T12:22:32;3.30;;;1.00;;
58466;SDS011;44255;49.244;7.726;2022-09-27T12:25:02;2.55;;;0.90;;
58466;SDS011;44255;49.244;7.726;2022-09-27T12:27:33;1.92;;;1.10;;
58466;SDS011;44255;49.244;7.726;2022-09-27T12:30:03;2.28;;;1.02;;
58466;SDS011;44255;49.244;7.726;2022-09-27T12:32:31;3.35;;;0.90;;
58466;SDS011;44255;49.244;7.726;2022-09-27T12:35:13;3.45;;;0.90;;
58466;SDS011;44255;49.244;7.726;2022-09-27T12:37:49;3.60;;;1.10;;
58466;SDS011;44255;49.244;7.726;2022-09-27T12:40:32;1.63;;;0.90;;
58466;SDS011;44255;49.244;7.726;2022-09-27T12:43:03;3.65;;;1.30;;
58466;SDS011;44255;49.244;7.726;2022-09-27T12:51:10;5.60;;;1.50;;
58466;SDS011;44255;49.244;7.726;2022-09-27T12:56:44;4.05;;;1.35;;
58466;SDS011;44255;49.244;7.726;2022-09-27T13:10:54;1.98;;;0.90;;
58466;SDS011;44255;49.244;7.726;2022-09-27T13:13:48;1.92;;;1.10;;
58466;SDS011;44255;49.244;7.726;2022-09-27T13:16:18;2.17;;;1.05;;
58466;SDS011;44255;49.244;7.726;2022-09-27T13:21:11;1.48;;;0.90;;
58466;SDS011;44255;49.244;7.726;2022-09-27T13:24:28;2.28;;;0.77;;
58466;SDS011;44255;49.244;7.726;2022-09-27T13:29:47;2.42;;;0.90;;
58466;SDS011;44255;49.244;7.726;2022-09-27T13:32:22;2.27;;;0.67;;
58466;SDS011;44255;49.244;7.726;2022-09-27T13:34:53;2.65;;;0.90;;
58466;SDS011;44255;49.244;7.726;2022-09-27T13:42:56;1.87;;;0.60;;
58466;SDS011;44255;49.244;7.726;2022-09-27T13:45:57;2.33;;;0.80;;
58466;SDS011;44255;49.244;7.726;2022-09-27T13:48:42;3.10;;;0.70;;
58466;SDS011;44255;49.244;7.726;2022-09-27T13:53:59;2.08;;;0.60;;
58466;SDS011;44255;49.244;7.726;2022-09-27T13:59:01;2.15;;;0.85;;
58466;SDS011;44255;49.244;7.726;2022-09-27T14:01:35;2.58;;;0.77;;
58466;SDS011;44255;49.244;7.726;2022-09-27T14:04:21;4.22;;;0.70;;
58466;SDS011;44255;49.244;7.726;2022-09-27T14:06:56;10.48;;;1.20;;
58466;SDS011;44255;49.244;7.726;2022-09-27T14:09:31;2.95;;;0.70;;
58466;SDS011;44255;49.244;7.726;2022-09-27T14:12:05;1.75;;;0.60;;
58466;SDS011;44255;49.244;7.726;2022-09-27T14:14:35;2.42;;;0.88;;
58466;SDS011;44255;49.244;7.726;2022-09-27T14:17:05;0.77;;;0.55;;
58466;SDS011;44255;49.244;7.726;2022-09-27T14:19:32;1.67;;;0.60;;
58466;SDS011;44255;49.244;7.726;2022-09-27T14:22:13;1.83;;;0.70;;
58466;SDS011;44255;49.244;7.726;2022-09-27T14:27:15;1.00;;;0.50;;
58466;SDS011;44255;49.244;7.726;2022-09-27T14:29:49;7.50;;;1.15;;
58466;SDS011;44255;49.244;7.726;2022-09-27T14:32:22;3.13;;;0.90;;
58466;SDS011;44255;49.244;7.726;2022-09-27T14:38:11;1.15;;;0.40;;
58466;SDS011;44255;49.244;7.726;2022-09-27T14:40:39;2.38;;;0.68;;
58466;SDS011;44255;49.244;7.726;2022-09-27T14:43:09;1.10;;;0.60;;
58466;SDS011;44255;49.244;7.726;2022-09-27T14:45:39;5.22;;;1.90;;
58466;SDS011;44255;49.244;7.726;2022-09-27T14:48:16;6.95;;;1.80;;
58466;SDS011;44255;49.244;7.726;2022-09-27T14:51:03;8.85;;;3.70;;
58466;SDS011;44255;49.244;7.726;2022-09-27T14:53:53;1.42;;;1.00;;
58466;SDS011;44255;49.244;7.726;2022-09-27T14:56:43;1.27;;;0.60;;
58466;SDS011;44255;49.244;7.726;2022-09-27T14:59:31;1.75;;;1.30;;
58466;SDS011;44255;49.244;7.726;2022-09-27T15:01:58;1.27;;;1.00;;
58466;SDS011;44255;49.244;7.726;2022-09-27T15:04:27;1.25;;;0.75;;
58466;SDS011;44255;49.244;7.726;2022-09-27T15:06:56;1.60;;;0.70;;
58466;SDS011;44255;49.244;7.726;2022-09-27T15:09:22;2.75;;;0.70;;
58466;SDS011;44255;49.244;7.726;2022-09-27T15:11:54;2.88;;;0.70;;
58466;SDS011;44255;49.244;7.726;2022-09-27T15:14:22;1.35;;;0.80;;
58466;SDS011;44255;49.244;7.726;2022-09-27T15:16:51;1.27;;;0.82;;
58466;SDS011;44255;49.244;7.726;2022-09-27T15:19:27;1.13;;;0.50;;
58466;SDS011;44255;49.244;7.726;2022-09-27T15:21:53;7.63;;;0.88;;
58466;SDS011;44255;49.244;7.726;2022-09-27T15:24:38;2.33;;;0.57;;
58466;SDS011;44255;49.244;7.726;2022-09-27T15:27:20;3.10;;;0.68;;
58466;SDS011;44255;49.244;7.726;2022-09-27T15:29:52;4.65;;;1.50;;
58466;SDS011;44255;49.244;7.726;2022-09-27T15:32:20;4.88;;;2.10;;
58466;SDS011;44255;49.244;7.726;2022-09-27T15:34:48;4.25;;;1.42;;
58466;SDS011;44255;49.244;7.726;2022-09-27T15:37:27;5.43;;;2.42;;
58466;SDS011;44255;49.244;7.726;2022-09-27T15:43:04;23.30;;;8.93;;
58466;SDS011;44255;49.244;7.726;2022-09-27T15:45:30;14.63;;;5.40;;
58466;SDS011;44255;49.244;7.726;2022-09-27T15:48:16;10.55;;;3.05;;
58466;SDS011;44255;49.244;7.726;2022-09-27T15:50:44;4.53;;;2.20;;
58466;SDS011;44255;49.244;7.726;2022-09-27T15:53:11;6.32;;;4.20;;
58466;SDS011;44255;49.244;7.726;2022-09-27T15:55:40;6.80;;;1.80;;
58466;SDS011;44255;49.244;7.726;2022-09-27T15:58:14;1.58;;;1.30;;
58466;SDS011;44255;49.244;7.726;2022-09-27T16:00:54;5.10;;;1.25;;
58466;SDS011;44255;49.244;7.726;2022-09-27T16:03:28;4.05;;;1.15;;
58466;SDS011;44255;49.244;7.726;2022-09-27T16:06:00;2.03;;;0.95;;
58466;SDS011;44255;49.244;7.726;2022-09-27T16:08:26;3.45;;;1.20;;
58466;SDS011;44255;49.244;7.726;2022-09-27T16:10:52;5.30;;;1.10;;
58466;SDS011;44255;49.244;7.726;2022-09-27T16:13:20;2.85;;;1.20;;
58466;SDS011;44255;49.244;7.726;2022-09-27T16:15:46;2.15;;;1.38;;
58466;SDS011;44255;49.244;7.726;2022-09-27T16:18:12;6.00;;;1.35;;
58466;SDS011;44255;49.244;7.726;2022-09-27T16:20:38;4.18;;;1.30;;
58466;SDS011;44255;49.244;7.726;2022-09-27T16:23:03;2.70;;;1.20;;
58466;SDS011;44255;49.244;7.726;2022-09-27T16:25:29;2.10;;;1.33;;
58466;SDS011;44255;49.244;7.726;2022-09-27T16:27:57;2.30;;;1.10;;
58466;SDS011;44255;49.244;7.726;2022-09-27T16:30:24;3.03;;;1.25;;
58466;SDS011;44255;49.244;7.726;2022-09-27T16:32:50;2.92;;;1.25;;
58466;SDS011;44255;49.244;7.726;2022-09-27T16:35:16;3.03;;;1.00;;
58466;SDS011;44255;49.244;7.726;2022-09-27T16:37:43;4.07;;;1.60;;
58466;SDS011;44255;49.244;7.726;2022-09-27T16:40:08;3.80;;;1.30;;
58466;SDS011;44255;49.244;7.726;2022-09-27T16:42:35;3.75;;;1.20;;
58466;SDS011;44255;49.244;7.726;2022-09-27T16:45:01;5.95;;;1.50;;
58466;SDS011;44255;49.244;7.726;2022-09-27T16:47:28;6.78;;;4.28;;
58466;SDS011;44255;49.244;7.726;2022-09-27T16:50:01;7.28;;;3.65;;
58466;SDS011;44255;49.244;7.726;2022-09-27T16:52:48;4.07;;;2.50;;
58466;SDS011;44255;49.244;7.726;2022-09-27T16:55:17;5.00;;;2.40;;
58466;SDS011;44255;49.244;7.726;2022-09-27T16:57:44;3.60;;;2.33;;
58466;SDS011;44255;49.244;7.726;2022-09-27T17:00:13;5.13;;;2.75;;
58466;SDS011;44255;49.244;7.726;2022-09-27T17:02:39;6.82;;;4.20;;
58466;SDS011;44255;49.244;7.726;2022-09-27T17:05:05;8.25;;;3.28;;
58466;SDS011;44255;49.244;7.726;2022-09-27T17:07:31;5.00;;;2.95;;
58466;SDS011;44255;49.244;7.726;2022-09-27T17:09:56;7.47;;;3.60;;
58466;SDS011;44255;49.244;7.726;2022-09-27T17:12:22;3.65;;;1.63;;
58466;SDS011;44255;49.244;7.726;2022-09-27T17:14:47;6.03;;;2.22;;
58466;SDS011;44255;49.244;7.726;2022-09-27T17:17:12;5.97;;;1.87;;
58466;SDS011;44255;49.244;7.726;2022-09-27T17:19:37;5.67;;;2.10;;
58466;SDS011;44255;49.244;7.726;2022-09-27T17:22:03;2.13;;;1.63;;
58466;SDS011;44255;49.244;7.726;2022-09-27T17:24:28;5.53;;;2.30;;
58466;SDS011;44255;49.244;7.726;2022-09-27T17:26:53;38.23;;;18.33;;
58466;SDS011;44255;49.244;7.726;2022-09-27T17:29:19;76.10;;;20.52;;
58466;SDS011;44255;49.244;7.726;2022-09-27T17:31:44;105.43;;;22.87;;
58466;SDS011;44255;49.244;7.726;2022-09-27T17:34:10;32.63;;;13.40;;
58466;SDS011;44255;49.244;7.726;2022-09-27T17:36:37;11.70;;;5.57;;
58466;SDS011;44255;49.244;7.726;2022-09-27T17:39:06;12.45;;;6.82;;
58466;SDS011;44255;49.244;7.726;2022-09-27T17:41:31;40.92;;;20.00;;
58466;SDS011;44255;49.244;7.726;2022-09-27T17:43:59;29.60;;;14.93;;
58466;SDS011;44255;49.244;7.726;2022-09-27T17:46:26;27.05;;;14.10;;
58466;SDS011;44255;49.244;7.726;2022-09-27T17:48:54;23.88;;;15.57;;
58466;SDS011;44255;49.244;7.726;2022-09-27T17:51:38;16.73;;;9.45;;
58466;SDS011;44255;49.244;7.726;2022-09-27T17:54:06;18.80;;;8.82;;
58466;SDS011;44255;49.244;7.726;2022-09-27T17:56:36;11.43;;;8.05;;
58466;SDS011;44255;49.244;7.726;2022-09-27T17:59:02;14.05;;;7.32;;
58466;SDS011;44255;49.244;7.726;2022-09-27T18:01:29;14.60;;;6.97;;
58466;SDS011;44255;49.244;7.726;2022-09-27T18:03:55;9.70;;;5.87;;
58466;SDS011;44255;49.244;7.726;2022-09-27T18:06:23;15.57;;;9.15;;
58466;SDS011;44255;49.244;7.726;2022-09-27T18:08:49;15.68;;;5.93;;
58466;SDS011;44255;49.244;7.726;2022-09-27T18:11:18;10.88;;;4.60;;
58466;SDS011;44255;49.244;7.726;2022-09-27T18:13:51;25.60;;;7.22;;
58466;SDS011;44255;49.244;7.726;2022-09-27T18:16:17;11.02;;;4.93;;
58466;SDS011;44255;49.244;7.726;2022-09-27T18:18:43;9.30;;;3.92;;
58466;SDS011;44255;49.244;7.726;2022-09-27T18:21:13;4.32;;;2.60;;
58466;SDS011;44255;49.244;7.726;2022-09-27T18:23:40;9.50;;;3.03;;
58466;SDS011;44255;49.244;7.726;2022-09-27T18:26:07;8.55;;;5.88;;
58466;SDS011;44255;49.244;7.726;2022-09-27T18:28:33;10.13;;;4.57;;
58466;SDS011;44255;49.244;7.726;2022-09-27T18:31:07;3.75;;;2.40;;
58466;SDS011;44255;49.244;7.726;2022-09-27T18:33:34;3.92;;;1.90;;
58466;SDS011;44255;49.244;7.726;2022-09-27T18:36:04;6.07;;;2.38;;
58466;SDS011;44255;49.244;7.726;2022-09-27T18:38:31;9.90;;;4.30;;
58466;SDS011;44255;49.244;7.726;2022-09-27T18:41:03;3.25;;;2.20;;
58466;SDS011;44255;49.244;7.726;2022-09-27T18:43:35;4.88;;;2.50;;
58466;SDS011;44255;49.244;7.726;2022-09-27T18:46:01;4.90;;;1.80;;
58466;SDS011;44255;49.244;7.726;2022-09-27T18:48:29;8.23;;;2.40;;
58466;SDS011;44255;49.244;7.726;2022-09-27T18:50:55;7.40;;;3.47;;
58466;SDS011;44255;49.244;7.726;2022-09-27T18:53:20;6.83;;;3.10;;
58466;SDS011;44255;49.244;7.726;2022-09-27T18:55:45;7.80;;;2.50;;
58466;SDS011;44255;49.244;7.726;2022-09-27T18:58:11;5.40;;;1.87;;
58466;SDS011;44255;49.244;7.726;2022-09-27T19:00:39;11.10;;;5.13;;
58466;SDS011;44255;49.244;7.726;2022-09-27T19:03:05;28.13;;;16.35;;
58466;SDS011;44255;49.244;7.726;2022-09-27T19:05:30;20.23;;;10.70;;
58466;SDS011;44255;49.244;7.726;2022-09-27T19:07:56;11.93;;;5.80;;
58466;SDS011;44255;49.244;7.726;2022-09-27T19:10:21;8.20;;;4.70;;
58466;SDS011;44255;49.244;7.726;2022-09-27T19:12:46;9.40;;;3.20;;
58466;SDS011;44255;49.244;7.726;2022-09-27T19:15:12;9.88;;;5.18;;
58466;SDS011;44255;49.244;7.726;2022-09-27T19:17:37;14.15;;;7.55;;
58466;SDS011;44255;49.244;7.726;2022-09-27T19:20:02;5.53;;;2.37;;
58466;SDS011;44255;49.244;7.726;2022-09-27T19:22:30;5.90;;;3.25;;
58466;SDS011;44255;49.244;7.726;2022-09-27T19:24:55;8.07;;;5.60;;
58466;SDS011;44255;49.244;7.726;2022-09-27T19:27:21;9.33;;;4.90;;
58466;SDS011;44255;49.244;7.726;2022-09-27T19:29:46;6.88;;;4.03;;
58466;SDS011;44255;49.244;7.726;2022-09-27T19:32:12;8.63;;;3.00;;
58466;SDS011;44255;49.244;7.726;2022-09-27T19:34:37;6.10;;;3.85;;
58466;SDS011;44255;49.244;7.726;2022-09-27T19:37:03;5.83;;;3.17;;
58466;SDS011;44255;49.244;7.726;2022-09-27T19:39:28;4.63;;;2.60;;
58466;SDS011;44255;49.244;7.726;2022-09-27T19:41:53;9.60;;;4.30;;
58466;SDS011;44255;49.244;7.726;2022-09-27T19:44:19;10.27;;;3.90;;
58466;SDS011;44255;49.244;7.726;2022-09-27T19:46:44;8.57;;;2.53;;
58466;SDS011;44255;49.244;7.726;2022-09-27T19:49:09;4.67;;;2.50;;
58466;SDS011;44255;49.244;7.726;2022-09-27T19:51:34;15.93;;;7.50;;
58466;SDS011;44255;49.244;7.726;2022-09-27T19:56:28;10.75;;;6.05;;
58466;SDS011;44255;49.244;7.726;2022-09-27T19:58:53;7.70;;;4.43;;
58466;SDS011;44255;49.244;7.726;2022-09-27T20:01:22;6.77;;;4.07;;
58466;SDS011;44255;49.244;7.726;2022-09-27T20:03:49;9.52;;;5.72;;
58466;SDS011;44255;49.244;7.726;2022-09-27T20:06:17;11.52;;;5.55;;
58466;SDS011;44255;49.244;7.726;2022-09-27T20:08:43;8.73;;;5.15;;
58466;SDS011;44255;49.244;7.726;2022-09-27T20:11:12;11.48;;;7.75;;
58466;SDS011;44255;49.244;7.726;2022-09-27T20:13:39;10.50;;;5.68;;
58466;SDS011;44255;49.244;7.726;2022-09-27T20:16:06;12.43;;;5.90;;
58466;SDS011;44255;49.244;7.726;2022-09-27T20:18:40;13.23;;;5.35;;
58466;SDS011;44255;49.244;7.726;2022-09-27T20:21:07;10.90;;;5.72;;
58466;SDS011;44255;49.244;7.726;2022-09-27T20:23:32;9.17;;;4.90;;
58466;SDS011;44255;49.244;7.726;2022-09-27T20:28:28;10.02;;;7.18;;
58466;SDS011;44255;49.244;7.726;2022-09-27T20:30:55;16.33;;;7.30;;
58466;SDS011;44255;49.244;7.726;2022-09-27T20:33:21;20.58;;;8.75;;
58466;SDS011;44255;49.244;7.726;2022-09-27T20:36:05;15.07;;;8.38;;
58466;SDS011;44255;49.244;7.726;2022-09-27T20:38:30;15.60;;;8.15;;
58466;SDS011;44255;49.244;7.726;2022-09-27T20:40:56;16.95;;;8.13;;
58466;SDS011;44255;49.244;7.726;2022-09-27T20:43:22;14.98;;;6.85;;
58466;SDS011;44255;49.244;7.726;2022-09-27T20:45:49;15.30;;;5.13;;